Airfield :
LOGIN :

Register | Disclaimer

   EN    FR    IT 

 










Legend :    VFR   Marginal VFR   IFR   Intensive IFR   Very Intensive IFR
Visi :
Ceiling :
>= 8 km
>= 3000ft
5 to 8 km
1000 to 3000 ft
1500m to 5 km
500 to 1000 ft
800 to 1500m
200 to 500 ft
< 800m
< 200 ft
Symbols :   Thunderstorms  Fog  Heavy snow  Heavy precipitations  Wind > 20 kt
SIGMETs :     Misc.  Thunderstorms  Icing  Turbulence  Mountain Waves  Volcanic Ashes






- Airport Elevation : 364 ft
- IATA code : FRA


EDDF - Frankfurt Int.

CURRENT METAR :
  • 100020Z 02009KT CAVOK 14/05 Q1024 NOSIG

EXPIRED METARs :
  • 092350Z 02009KT CAVOK 15/05 Q1024 NOSIG
  • 092320Z 02009KT CAVOK 15/05 Q1024 NOSIG
  • 092250Z 03008KT CAVOK 16/05 Q1024 NOSIG
  • 092220Z 02009KT CAVOK 16/06 Q1024 NOSIG
  • 092150Z 02012KT CAVOK 17/06 Q1024 NOSIG

TAF TAF EDDF
Valid from the 10 at 00:00 until the 11 at 06:00 UTC


092300Z 1000/1106 03007KT CAVOK



MET'MAP, your aeronautical weather chart ! - Copyright ORBIFLY December 2007 - Disclaimer

ORBIFLY MET'MAP TEAM :

Programming & Development : Alexandra Zaïnal
Concept & original design : Baudouin d'Aumeries
Assistance for programming : Marc-Olivier Méhu
Technical & hardware support : Manuel Goepfert

Contact : metmap@orbifly.com




SOURCES & CREDITS :

   NOAA